Time;durP1;ratioP1;P1;durP2;ratioP2;P2;SDS_P1;SDS_P2;PMS_P1;PMS_P2;Temp;Humidity;BMP_temperature;BMP_pressure;BME280_temperature;BME280_humidity;BME280_pressure;Samples;Min_cycle;Max_cycle;Signal;HPM_P1;HPM_P2
2021/10/26 00:02:24;;;;;;;8.63;7.57;;;;;;;;;;5112777;28;20183;-85
2021/10/26 00:05:11;;;;;;;8.57;7.37;;;;;;;;;;5112524;28;20180;-85
2021/10/26 00:07:57;;;;;;;8.20;7.13;;;;;;;;;;5112528;28;20314;-84
2021/10/26 00:10:42;;;;;;;10.93;7.47;;;;;;;;;;5112462;28;20591;-84
2021/10/26 00:13:27;;;;;;;8.80;7.60;;;;;;;;;;5112381;28;20693;-84
2021/10/26 00:16:12;;;;;;;10.07;7.50;;;;;;;;;;5112609;28;20237;-84
2021/10/26 00:18:57;;;;;;;11.17;7.77;;;;;;;;;;5112173;28;20196;-84
2021/10/26 00:21:43;;;;;;;7.70;6.40;;;;;;;;;;5112286;28;20238;-84
2021/10/26 00:24:28;;;;;;;8.77;6.93;;;;;;;;;;5112493;28;20552;-85
2021/10/26 00:27:13;;;;;;;9.43;7.50;;;;;;;;;;5112253;28;20549;-84
2021/10/26 00:29:58;;;;;;;8.27;7.40;;;;;;;;;;5112310;28;20188;-85
2021/10/26 00:32:43;;;;;;;10.27;7.50;;;;;;;;;;5112043;28;20188;-85
2021/10/26 00:35:28;;;;;;;7.17;6.47;;;;;;;;;;5112190;28;20212;-85
2021/10/26 00:38:15;;;;;;;7.77;6.73;;;;;;;;;;5112137;28;20288;-85
2021/10/26 00:41:00;;;;;;;10.20;7.27;;;;;;;;;;5111961;28;20188;-85
2021/10/26 00:43:45;;;;;;;11.43;8.53;;;;;;;;;;5112328;28;20184;-84
2021/10/26 00:46:32;;;;;;;33.03;15.30;;;;;;;;;;5112260;28;20199;-85
2021/10/26 00:49:17;;;;;;;56.17;22.60;;;;;;;;;;5111853;28;20254;-85
2021/10/26 00:52:02;;;;;;;43.43;19.20;;;;;;;;;;5112531;28;20281;-84
2021/10/26 00:54:48;;;;;;;39.50;16.53;;;;;;;;;;5115801;28;20232;-84
2021/10/26 00:57:33;;;;;;;18.03;10.57;;;;;;;;;;5116272;28;20180;-84
2021/10/26 01:00:19;;;;;;;16.33;9.87;;;;;;;;;;5116114;28;20287;-85
2021/10/26 01:03:04;;;;;;;9.67;7.93;;;;;;;;;;5115852;28;20650;-84
2021/10/26 01:05:49;;;;;;;8.40;7.13;;;;;;;;;;5116006;28;20770;-84
2021/10/26 01:08:35;;;;;;;8.97;7.37;;;;;;;;;;5115836;28;20211;-85
2021/10/26 01:11:21;;;;;;;8.33;6.97;;;;;;;;;;5115878;28;20188;-85
2021/10/26 01:14:07;;;;;;;8.10;7.30;;;;;;;;;;5115872;28;20732;-84
2021/10/26 01:16:52;;;;;;;8.57;7.40;;;;;;;;;;5115697;28;20181;-84
2021/10/26 01:19:45;;;;;;;33.97;16.47;;;;;;;;;;5115725;28;20554;-85
2021/10/26 01:22:38;;;;;;;57.40;23.60;;;;;;;;;;5115623;28;20184;-84
2021/10/26 01:25:23;;;;;;;78.33;28.30;;;;;;;;;;5115618;28;20176;-84
2021/10/26 01:28:09;;;;;;;66.27;23.87;;;;;;;;;;5115475;28;20326;-84
2021/10/26 01:30:54;;;;;;;37.70;16.50;;;;;;;;;;5115602;28;20208;-85
2021/10/26 01:33:40;;;;;;;9.97;7.73;;;;;;;;;;5115251;28;20272;-85
2021/10/26 01:36:26;;;;;;;12.33;8.33;;;;;;;;;;5115470;28;20184;-84
2021/10/26 01:39:11;;;;;;;10.03;7.50;;;;;;;;;;5115419;28;20183;-84
2021/10/26 01:41:57;;;;;;;7.07;6.40;;;;;;;;;;5115178;28;20184;-84
2021/10/26 01:44:41;;;;;;;7.20;6.50;;;;;;;;;;5115306;28;20180;-84
2021/10/26 01:47:26;;;;;;;19.83;7.30;;;;;;;;;;5115450;28;20184;-84
2021/10/26 01:50:13;;;;;;;7.83;6.93;;;;;;;;;;5115098;28;20294;-84
2021/10/26 01:52:59;;;;;;;8.83;7.20;;;;;;;;;;5114838;28;20268;-84
2021/10/26 01:55:44;;;;;;;12.33;6.90;;;;;;;;;;5114692;28;20251;-84
2021/10/26 01:58:29;;;;;;;8.33;6.40;;;;;;;;;;5115289;28;20231;-84
2021/10/26 02:01:14;;;;;;;7.03;5.93;;;;;;;;;;5114995;28;20184;-84
2021/10/26 02:03:59;;;;;;;7.17;5.93;;;;;;;;;;5114607;28;20326;-84
2021/10/26 02:06:44;;;;;;;9.90;6.07;;;;;;;;;;5114583;28;20663;-84
2021/10/26 02:09:31;;;;;;;7.33;5.60;;;;;;;;;;5114900;28;20188;-84
2021/10/26 02:12:16;;;;;;;6.77;5.33;;;;;;;;;;5114721;28;20230;-84
2021/10/26 02:15:01;;;;;;;5.40;4.93;;;;;;;;;;5115060;28;20220;-84
2021/10/26 02:17:46;;;;;;;7.27;5.00;;;;;;;;;;5114673;28;20229;-84
2021/10/26 02:20:32;;;;;;;7.47;5.63;;;;;;;;;;5114540;28;20185;-84
2021/10/26 02:23:17;;;;;;;6.23;5.63;;;;;;;;;;5114586;28;20191;-84
2021/10/26 02:26:05;;;;;;;5.87;5.17;;;;;;;;;;5114546;28;20192;-85
2021/10/26 02:28:50;;;;;;;6.07;5.47;;;;;;;;;;5114236;28;20234;-84
2021/10/26 02:31:35;;;;;;;6.10;5.50;;;;;;;;;;5114440;28;20200;-84
2021/10/26 02:34:20;;;;;;;6.47;5.57;;;;;;;;;;5114117;28;20220;-84
2021/10/26 02:37:05;;;;;;;7.77;5.20;;;;;;;;;;5114132;28;20192;-84
2021/10/26 02:39:50;;;;;;;5.30;4.80;;;;;;;;;;5114048;28;20188;-84
2021/10/26 02:42:37;;;;;;;5.30;4.80;;;;;;;;;;5114111;28;20548;-84
2021/10/26 02:45:27;;;;;;;6.27;4.80;;;;;;;;;;5114014;28;20184;-84
2021/10/26 02:48:12;;;;;;;8.00;4.70;;;;;;;;;;5114176;28;20188;-85
2021/10/26 02:50:57;;;;;;;5.10;4.57;;;;;;;;;;5114000;28;20297;-84
2021/10/26 02:53:43;;;;;;;8.57;5.37;;;;;;;;;;5113820;28;20232;-84
2021/10/26 02:56:28;;;;;;;5.80;4.93;;;;;;;;;;5113920;28;20210;-84
2021/10/26 02:59:15;;;;;;;8.53;5.40;;;;;;;;;;5113831;28;20227;-84
2021/10/26 03:02:00;;;;;;;16.50;6.93;;;;;;;;;;5113986;28;20242;-84
2021/10/26 03:04:45;;;;;;;22.67;10.27;;;;;;;;;;5113588;28;20188;-84
2021/10/26 03:07:30;;;;;;;39.40;15.93;;;;;;;;;;5113885;28;20238;-84
2021/10/26 03:10:16;;;;;;;44.57;16.73;;;;;;;;;;5113950;28;20313;-84
2021/10/26 03:13:01;;;;;;;34.47;13.70;;;;;;;;;;5113343;28;20274;-84
2021/10/26 03:15:47;;;;;;;17.90;8.33;;;;;;;;;;5112753;28;20236;-84
2021/10/26 03:18:32;;;;;;;18.23;8.07;;;;;;;;;;5113577;28;20184;-84
2021/10/26 03:21:17;;;;;;;8.27;5.80;;;;;;;;;;5113359;28;20184;-85
2021/10/26 03:24:03;;;;;;;8.07;5.90;;;;;;;;;;5113644;28;20193;-84
2021/10/26 03:26:48;;;;;;;12.53;7.13;;;;;;;;;;5113407;28;20310;-84
2021/10/26 03:29:34;;;;;;;6.90;5.53;;;;;;;;;;5113409;28;20196;-85
2021/10/26 03:32:20;;;;;;;10.03;5.50;;;;;;;;;;5113700;28;20221;-85
2021/10/26 03:35:05;;;;;;;11.13;5.53;;;;;;;;;;5113132;28;20212;-83
2021/10/26 03:37:50;;;;;;;6.40;5.50;;;;;;;;;;5113369;28;20556;-84
2021/10/26 03:40:36;;;;;;;6.47;4.97;;;;;;;;;;5113247;28;20180;-85
2021/10/26 03:43:21;;;;;;;6.50;4.50;;;;;;;;;;5113059;28;20196;-85
2021/10/26 03:46:06;;;;;;;5.17;4.60;;;;;;;;;;5112748;28;20179;-84
2021/10/26 03:48:53;;;;;;;5.87;5.00;;;;;;;;;;5112494;28;20180;-84
2021/10/26 03:51:38;;;;;;;7.30;5.17;;;;;;;;;;5112718;28;20297;-86
2021/10/26 03:54:23;;;;;;;6.70;4.63;;;;;;;;;;5112947;28;20252;-85
2021/10/26 03:57:11;;;;;;;5.17;4.60;;;;;;;;;;5112731;28;20189;-85
2021/10/26 03:59:56;;;;;;;6.57;4.57;;;;;;;;;;5112348;28;20184;-86
2021/10/26 04:02:42;;;;;;;5.30;4.80;;;;;;;;;;5112626;28;20188;-85
2021/10/26 04:05:39;;;;;;;4.73;4.43;;;;;;;;;;5112434;28;20193;-86
2021/10/26 04:08:27;;;;;;;10.60;5.40;;;;;;;;;;5112656;28;20631;-86
2021/10/26 04:11:16;;;;;;;6.87;4.57;;;;;;;;;;5112302;28;20735;-85
2021/10/26 04:14:01;;;;;;;5.20;4.13;;;;;;;;;;5112643;28;20219;-85
2021/10/26 04:16:46;;;;;;;5.17;4.67;;;;;;;;;;5112215;28;20204;-84
2021/10/26 04:19:31;;;;;;;7.73;4.93;;;;;;;;;;5112318;28;20184;-84
2021/10/26 04:22:21;;;;;;;8.83;5.30;;;;;;;;;;5112195;28;20544;-84
2021/10/26 04:25:06;;;;;;;5.70;4.57;;;;;;;;;;5112111;28;20184;-84
2021/10/26 04:27:51;;;;;;;5.53;4.90;;;;;;;;;;5101206;28;20193;-84
2021/10/26 04:30:37;;;;;;;9.50;5.10;;;;;;;;;;5105864;28;20269;-83
2021/10/26 04:33:22;;;;;;;5.63;4.90;;;;;;;;;;5112230;28;20188;-86
2021/10/26 04:36:07;;;;;;;7.10;5.10;;;;;;;;;;5111810;28;20241;-84
2021/10/26 04:38:53;;;;;;;5.63;5.00;;;;;;;;;;5112092;28;20184;-86
2021/10/26 04:41:39;;;;;;;5.57;4.77;;;;;;;;;;5111841;28;20192;-85
2021/10/26 04:44:24;;;;;;;6.40;5.00;;;;;;;;;;5101560;28;20559;-83
2021/10/26 04:47:09;;;;;;;5.90;4.90;;;;;;;;;;5093879;28;20208;-82
2021/10/26 04:49:54;;;;;;;5.23;4.67;;;;;;;;;;5091594;28;20220;-84
2021/10/26 04:52:39;;;;;;;8.13;5.37;;;;;;;;;;5107330;28;20323;-82
2021/10/26 04:55:26;;;;;;;5.87;4.87;;;;;;;;;;5111961;28;20250;-81
2021/10/26 04:58:11;;;;;;;5.87;5.27;;;;;;;;;;5111950;28;20565;-82
2021/10/26 05:00:56;;;;;;;5.93;5.30;;;;;;;;;;5111831;28;20184;-82
2021/10/26 05:03:42;;;;;;;8.30;5.43;;;;;;;;;;5111765;28;20188;-84
2021/10/26 05:06:27;;;;;;;5.03;4.63;;;;;;;;;;5112219;28;20189;-83
2021/10/26 05:09:12;;;;;;;5.10;4.80;;;;;;;;;;5108464;28;20188;-83
2021/10/26 05:11:58;;;;;;;5.63;4.97;;;;;;;;;;5111687;28;20314;-82
2021/10/26 05:14:43;;;;;;;5.40;4.70;;;;;;;;;;5111807;28;20242;-83
2021/10/26 05:17:29;;;;;;;8.73;5.70;;;;;;;;;;5108994;28;20184;-83
2021/10/26 05:20:17;;;;;;;7.60;5.17;;;;;;;;;;5109955;28;20196;-83
2021/10/26 05:23:03;;;;;;;8.17;5.07;;;;;;;;;;5108297;28;20670;-83
2021/10/26 05:25:51;;;;;;;5.50;4.93;;;;;;;;;;5111703;28;20185;-82
2021/10/26 05:28:37;;;;;;;5.57;4.30;;;;;;;;;;5111616;28;20188;-82
2021/10/26 05:31:22;;;;;;;6.10;4.53;;;;;;;;;;5111855;28;20192;-83
2021/10/26 05:34:09;;;;;;;7.47;5.03;;;;;;;;;;5111667;28;20651;-89
2021/10/26 05:36:54;;;;;;;5.87;4.93;;;;;;;;;;5111827;28;20208;-84
2021/10/26 05:39:39;;;;;;;7.03;4.90;;;;;;;;;;5114562;28;20231;-86
2021/10/26 05:42:24;;;;;;;5.53;4.63;;;;;;;;;;5115392;28;20598;-86
2021/10/26 05:45:11;;;;;;;6.47;4.77;;;;;;;;;;5115572;28;20179;-86
2021/10/26 05:47:56;;;;;;;6.47;4.70;;;;;;;;;;5115062;28;20188;-87
2021/10/26 05:50:41;;;;;;;6.13;4.83;;;;;;;;;;5115500;28;20232;-86
2021/10/26 05:53:26;;;;;;;5.80;4.80;;;;;;;;;;5114896;28;20251;-86
2021/10/26 05:56:11;;;;;;;8.77;5.03;;;;;;;;;;5115274;28;20733;-86
2021/10/26 05:58:57;;;;;;;5.37;4.80;;;;;;;;;;5115315;28;20184;-86
2021/10/26 06:01:43;;;;;;;7.60;5.33;;;;;;;;;;5115054;28;20266;-85
2021/10/26 06:04:29;;;;;;;6.77;5.10;;;;;;;;;;5115159;28;20188;-86
2021/10/26 06:07:14;;;;;;;6.07;5.40;;;;;;;;;;5115084;28;20184;-86
2021/10/26 06:09:59;;;;;;;6.47;5.87;;;;;;;;;;5115021;28;20274;-85
2021/10/26 06:12:50;;;;;;;11.13;7.53;;;;;;;;;;5114407;28;20184;-87
2021/10/26 06:15:35;;;;;;;11.93;7.73;;;;;;;;;;5115172;28;20528;-87
2021/10/26 06:18:22;;;;;;;12.10;7.77;;;;;;;;;;5114932;28;20209;-87
2021/10/26 06:21:07;;;;;;;13.37;7.33;;;;;;;;;;5115350;28;20655;-86
2021/10/26 06:23:53;;;;;;;8.17;6.70;;;;;;;;;;5114374;28;20215;-87
2021/10/26 06:26:38;;;;;;;7.63;6.47;;;;;;;;;;5114641;28;20183;-88
2021/10/26 06:29:23;;;;;;;8.23;5.50;;;;;;;;;;5115445;28;20191;-89
2021/10/26 06:32:08;;;;;;;7.80;5.67;;;;;;;;;;5114697;28;20311;-89
2021/10/26 06:34:54;;;;;;;8.13;5.87;;;;;;;;;;5115727;28;20322;-87
2021/10/26 06:37:42;;;;;;;5.70;5.00;;;;;;;;;;5115231;28;20323;-89
2021/10/26 06:40:28;;;;;;;6.43;5.63;;;;;;;;;;5114577;28;20186;-87
2021/10/26 06:43:14;;;;;;;7.57;5.30;;;;;;;;;;5114786;28;20184;-86
2021/10/26 06:45:59;;;;;;;7.30;5.93;;;;;;;;;;5114324;28;20180;-85
2021/10/26 06:48:44;;;;;;;7.07;6.00;;;;;;;;;;5113957;28;20188;-86
2021/10/26 06:51:31;;;;;;;6.87;5.57;;;;;;;;;;5113540;28;20219;-88
2021/10/26 06:54:17;;;;;;;6.03;5.47;;;;;;;;;;5114400;28;20317;-87
2021/10/26 06:57:03;;;;;;;6.00;5.43;;;;;;;;;;5114793;28;20211;-89
2021/10/26 06:59:48;;;;;;;6.17;5.50;;;;;;;;;;5114976;28;20552;-89
2021/10/26 07:02:33;;;;;;;6.57;5.63;;;;;;;;;;5115438;28;20184;-88
2021/10/26 07:05:19;;;;;;;6.80;5.67;;;;;;;;;;5114471;28;20181;-88
2021/10/26 07:08:05;;;;;;;9.07;5.60;;;;;;;;;;5113935;28;20699;-86
2021/10/26 07:10:51;;;;;;;9.00;5.43;;;;;;;;;;5114442;28;20298;-87
2021/10/26 07:13:38;;;;;;;6.63;5.87;;;;;;;;;;5114606;28;20199;-88
2021/10/26 07:16:23;;;;;;;7.60;5.70;;;;;;;;;;5114409;28;20281;-86
2021/10/26 07:19:08;;;;;;;6.47;5.77;;;;;;;;;;5114255;28;20247;-86
2021/10/26 07:21:53;;;;;;;6.70;5.53;;;;;;;;;;5113994;28;20179;-87
2021/10/26 07:24:39;;;;;;;8.23;6.00;;;;;;;;;;5114060;28;20187;-87
2021/10/26 07:27:25;;;;;;;8.70;5.93;;;;;;;;;;5113511;28;20222;-86
2021/10/26 07:30:11;;;;;;;6.83;5.70;;;;;;;;;;5113647;28;20672;-85
2021/10/26 07:32:57;;;;;;;8.13;5.73;;;;;;;;;;5113202;28;20274;-86
2021/10/26 07:35:44;;;;;;;7.93;5.27;;;;;;;;;;5113405;28;20196;-84
2021/10/26 07:38:31;;;;;;;6.90;5.80;;;;;;;;;;5113791;28;20188;-87
2021/10/26 07:41:17;;;;;;;12.73;6.10;;;;;;;;;;5113597;28;20199;-86
2021/10/26 07:44:02;;;;;;;9.57;5.93;;;;;;;;;;5112804;28;20192;-85
2021/10/26 07:46:47;;;;;;;6.70;5.97;;;;;;;;;;5112864;28;20187;-86
2021/10/26 07:49:33;;;;;;;7.83;6.07;;;;;;;;;;5113024;28;20245;-84
2021/10/26 07:52:19;;;;;;;6.80;6.10;;;;;;;;;;5112922;28;20187;-84
2021/10/26 07:55:05;;;;;;;7.97;6.83;;;;;;;;;;5112970;28;20227;-84
2021/10/26 07:57:54;;;;;;;7.27;5.73;;;;;;;;;;5112981;28;20239;-84
2021/10/26 08:00:39;;;;;;;8.50;6.20;;;;;;;;;;5112766;28;20681;-84
2021/10/26 08:03:27;;;;;;;6.77;5.73;;;;;;;;;;5112577;28;20180;-84
2021/10/26 08:06:12;;;;;;;7.40;6.33;;;;;;;;;;5112767;28;20192;-84
2021/10/26 08:08:57;;;;;;;8.07;6.03;;;;;;;;;;5112591;28;20192;-84
2021/10/26 08:11:42;;;;;;;10.60;6.37;;;;;;;;;;5112668;28;20620;-84
2021/10/26 08:14:29;;;;;;;10.30;6.20;;;;;;;;;;5112953;28;20698;-84
2021/10/26 08:17:14;;;;;;;9.43;6.27;;;;;;;;;;5112599;28;20207;-84
2021/10/26 08:19:59;;;;;;;8.23;6.53;;;;;;;;;;5112297;28;20183;-84
2021/10/26 08:22:45;;;;;;;8.93;5.90;;;;;;;;;;5112683;28;20266;-84
2021/10/26 08:25:33;;;;;;;6.83;5.73;;;;;;;;;;5112350;28;20602;-84
2021/10/26 08:28:18;;;;;;;7.00;6.23;;;;;;;;;;5112398;28;20177;-85
2021/10/26 08:31:13;;;;;;;10.53;6.27;;;;;;;;;;5112330;28;20211;-85
2021/10/26 08:34:09;;;;;;;7.70;6.30;;;;;;;;;;5112620;28;20683;-85
2021/10/26 08:36:54;;;;;;;9.30;5.73;;;;;;;;;;5112186;28;20907;-85
2021/10/26 08:39:41;;;;;;;7.10;5.50;;;;;;;;;;5112305;28;20185;-85
2021/10/26 08:42:26;;;;;;;7.33;6.50;;;;;;;;;;5112307;28;20312;-85
2021/10/26 08:45:12;;;;;;;7.93;5.83;;;;;;;;;;5112177;28;20741;-85
2021/10/26 08:47:58;;;;;;;7.67;5.80;;;;;;;;;;5112352;28;20188;-85
2021/10/26 08:50:45;;;;;;;5.90;5.27;;;;;;;;;;5112240;28;20693;-84
2021/10/26 08:53:32;;;;;;;6.70;5.97;;;;;;;;;;5112194;28;20274;-86
2021/10/26 08:56:17;;;;;;;6.10;5.10;;;;;;;;;;5112178;28;20302;-84
2021/10/26 08:59:02;;;;;;;6.97;5.83;;;;;;;;;;5112529;28;20494;-86
2021/10/26 09:01:48;;;;;;;5.60;5.10;;;;;;;;;;5112249;28;20195;-85
2021/10/26 09:04:36;;;;;;;6.07;4.83;;;;;;;;;;5111874;28;20204;-85
2021/10/26 09:07:22;;;;;;;5.80;5.20;;;;;;;;;;5112385;28;20211;-86
2021/10/26 09:10:11;;;;;;;10.03;5.73;;;;;;;;;;5112126;28;20181;-86
2021/10/26 09:19:27;;;;;;;12.20;7.03;;;;;;;;;;5115797;28;20215;-85
2021/10/26 09:22:14;;;;;;;14.17;6.50;;;;;;;;;;5115917;28;20184;-84
2021/10/26 09:25:00;;;;;;;14.70;7.63;;;;;;;;;;5115953;28;20193;-85
2021/10/26 09:27:45;;;;;;;6.00;5.40;;;;;;;;;;5115508;28;20184;-84
2021/10/26 09:30:30;;;;;;;4.90;4.40;;;;;;;;;;5115583;28;20258;-85
2021/10/26 09:33:28;;;;;;;4.47;4.07;;;;;;;;;;5115493;28;20183;-85
2021/10/26 09:36:27;;;;;;;4.13;3.73;;;;;;;;;;5115489;28;20266;-86
2021/10/26 09:39:15;;;;;;;8.53;4.53;;;;;;;;;;5115508;28;20555;-85
2021/10/26 09:42:08;;;;;;;4.83;3.90;;;;;;;;;;5115561;28;20185;-86
2021/10/26 09:44:55;;;;;;;3.70;3.40;;;;;;;;;;5115266;28;20270;-84
2021/10/26 09:47:43;;;;;;;4.33;3.40;;;;;;;;;;5115113;28;20185;-86
2021/10/26 09:50:30;;;;;;;4.07;3.30;;;;;;;;;;5115400;28;20223;-88
2021/10/26 09:53:16;;;;;;;4.20;3.13;;;;;;;;;;5116086;28;20232;-89
2021/10/26 09:56:03;;;;;;;4.43;3.53;;;;;;;;;;5116272;28;20196;-89
2021/10/26 09:58:48;;;;;;;3.70;3.40;;;;;;;;;;5115947;28;20222;-87
2021/10/26 10:01:34;;;;;;;3.30;3.00;;;;;;;;;;5116665;28;20208;-88
2021/10/26 10:04:30;;;;;;;3.20;3.00;;;;;;;;;;5116077;28;20188;-87
2021/10/26 10:07:17;;;;;;;7.13;3.90;;;;;;;;;;5116147;28;20213;-92
2021/10/26 10:10:04;;;;;;;12.37;4.80;;;;;;;;;;5115720;28;20930;-87
2021/10/26 10:13:03;;;;;;;10.73;4.43;;;;;;;;;;5115089;28;20548;-85
2021/10/26 10:15:49;;;;;;;7.80;3.47;;;;;;;;;;5114822;28;20183;-84
2021/10/26 10:18:34;;;;;;;2.70;2.20;;;;;;;;;;5115265;28;20690;-84
2021/10/26 10:21:23;;;;;;;2.87;2.17;;;;;;;;;;5115467;28;20192;-86
2021/10/26 10:24:09;;;;;;;2.40;1.90;;;;;;;;;;5115229;28;20242;-85
2021/10/26 10:26:55;;;;;;;2.07;1.97;;;;;;;;;;5115038;28;20199;-83
2021/10/26 10:29:41;;;;;;;2.35;2.13;;;;;;;;;;5114380;28;21255;-83
2021/10/26 10:32:28;;;;;;;2.50;2.17;;;;;;;;;;5114515;28;20188;-83
2021/10/26 10:35:16;;;;;;;3.63;1.63;;;;;;;;;;5114971;28;20302;-83
2021/10/26 10:38:01;;;;;;;1.50;1.40;;;;;;;;;;5114247;28;20224;-81
2021/10/26 10:40:46;;;;;;;4.07;1.53;;;;;;;;;;5114233;28;20552;-82
2021/10/26 10:43:36;;;;;;;1.90;1.80;;;;;;;;;;5114661;28;20192;-83
2021/10/26 10:46:39;;;;;;;3.50;1.63;;;;;;;;;;5114353;28;20212;-85
2021/10/26 10:49:52;;;;;;;3.87;1.80;;;;;;;;;;5114239;28;20192;-84
2021/10/26 10:52:37;;;;;;;1.20;1.20;;;;;;;;;;5085858;28;20215;-81
2021/10/26 10:55:24;;;;;;;2.17;1.60;;;;;;;;;;5113927;28;20192;-82
2021/10/26 10:58:22;;;;;;;1.90;1.80;;;;;;;;;;5114316;28;20691;-86
2021/10/26 11:01:27;;;;;;;2.03;1.53;;;;;;;;;;5113967;28;20655;-84
2021/10/26 11:04:31;;;;;;;2.53;1.30;;;;;;;;;;5114657;28;20307;-85
2021/10/26 11:07:38;;;;;;;2.00;1.40;;;;;;;;;;5114350;28;20188;-87
2021/10/26 11:10:25;;;;;;;2.93;1.90;;;;;;;;;;5115023;28;20188;-87
2021/10/26 11:13:16;;;;;;;2.07;1.93;;;;;;;;;;5114198;28;20203;-85
2021/10/26 11:16:03;;;;;;;1.93;1.77;;;;;;;;;;5114353;28;20185;-84
2021/10/26 11:18:49;;;;;;;1.73;1.47;;;;;;;;;;5113982;28;20330;-85
2021/10/26 11:21:35;;;;;;;1.83;1.73;;;;;;;;;;5114645;28;20626;-85
2021/10/26 11:24:20;;;;;;;2.03;1.83;;;;;;;;;;5114389;28;20193;-86
2021/10/26 11:27:26;;;;;;;3.23;1.70;;;;;;;;;;5114443;28;20683;-85
2021/10/26 11:30:26;;;;;;;2.63;1.60;;;;;;;;;;5114195;28;20215;-85
2021/10/26 11:33:29;;;;;;;2.27;1.40;;;;;;;;;;5094913;28;20244;-87
2021/10/26 11:36:17;;;;;;;1.50;1.40;;;;;;;;;;5099736;28;20215;-86
2021/10/26 11:39:05;;;;;;;1.97;1.53;;;;;;;;;;5114970;28;20254;-88
2021/10/26 11:41:51;;;;;;;2.80;2.20;;;;;;;;;;5114849;28;20660;-88
2021/10/26 11:44:38;;;;;;;1.73;1.63;;;;;;;;;;5102674;28;20199;-87
2021/10/26 11:47:23;;;;;;;1.97;1.50;;;;;;;;;;5112134;28;20275;-87
2021/10/26 11:50:08;;;;;;;6.23;1.60;;;;;;;;;;5093308;28;20709;-82
2021/10/26 11:52:53;;;;;;;3.77;1.70;;;;;;;;;;5092442;28;20189;-81
2021/10/26 11:55:38;;;;;;;2.27;1.90;;;;;;;;;;5092829;28;20185;-83
2021/10/26 11:58:26;;;;;;;1.73;1.63;;;;;;;;;;5092605;28;20566;-81
2021/10/26 12:01:13;;;;;;;2.60;1.77;;;;;;;;;;5092802;28;20185;-83
2021/10/26 12:03:58;;;;;;;1.87;1.70;;;;;;;;;;5092266;28;20188;-83
2021/10/26 12:06:43;;;;;;;2.37;2.17;;;;;;;;;;5092277;28;20189;-81
2021/10/26 12:09:29;;;;;;;1.90;1.80;;;;;;;;;;5092464;28;20748;-83
2021/10/26 12:12:15;;;;;;;2.30;2.10;;;;;;;;;;5092279;28;20555;-84
2021/10/26 12:15:01;;;;;;;2.50;2.30;;;;;;;;;;5092859;28;20201;-84
2021/10/26 12:17:47;;;;;;;2.20;2.00;;;;;;;;;;5091899;28;20185;-85
2021/10/26 12:20:32;;;;;;;3.33;2.03;;;;;;;;;;5091974;28;20262;-82
2021/10/26 12:23:17;;;;;;;4.30;2.57;;;;;;;;;;5092020;28;20275;-84
2021/10/26 12:26:09;;;;;;;3.70;2.10;;;;;;;;;;5091414;28;20189;-83
2021/10/26 12:28:55;;;;;;;6.10;2.10;;;;;;;;;;5091478;28;20189;-82
2021/10/26 12:31:40;;;;;;;2.90;2.00;;;;;;;;;;5091673;28;20664;-83
2021/10/26 12:34:26;;;;;;;1.73;1.63;;;;;;;;;;5091562;28;20193;-84
2021/10/26 12:37:33;;;;;;;2.90;2.00;;;;;;;;;;5091785;28;20212;-82
2021/10/26 12:40:20;;;;;;;2.27;1.67;;;;;;;;;;5091128;28;20208;-84
2021/10/26 12:43:06;;;;;;;1.80;1.70;;;;;;;;;;5091485;28;20192;-82
2021/10/26 12:45:52;;;;;;;2.03;1.53;;;;;;;;;;5091015;28;20212;-82
2021/10/26 12:48:37;;;;;;;7.90;1.53;;;;;;;;;;5093199;28;20189;-81
2021/10/26 12:51:25;;;;;;;1.70;1.60;;;;;;;;;;5095167;28;20347;-82
2021/10/26 12:54:12;;;;;;;4.67;1.70;;;;;;;;;;5095329;28;20224;-84
2021/10/26 12:57:00;;;;;;;2.73;1.37;;;;;;;;;;5095397;28;20653;-83
2021/10/26 12:59:45;;;;;;;2.90;1.90;;;;;;;;;;5095179;28;20209;-85
2021/10/26 13:02:31;;;;;;;1.80;1.40;;;;;;;;;;5095190;28;20262;-83
2021/10/26 13:05:17;;;;;;;3.43;1.70;;;;;;;;;;5095362;28;20181;-86
2021/10/26 13:08:03;;;;;;;5.23;1.50;;;;;;;;;;5094911;28;20703;-83
2021/10/26 13:10:49;;;;;;;3.33;1.40;;;;;;;;;;5094792;28;20181;-85
2021/10/26 13:13:34;;;;;;;3.17;1.63;;;;;;;;;;5095016;28;20208;-83
2021/10/26 13:16:29;;;;;;;1.90;1.60;;;;;;;;;;5094637;28;20200;-84
2021/10/26 13:19:15;;;;;;;1.83;1.53;;;;;;;;;;5095104;28;20363;-85
2021/10/26 13:22:08;;;;;;;4.67;2.10;;;;;;;;;;5094414;28;20311;-84
2021/10/26 13:24:55;;;;;;;2.57;1.60;;;;;;;;;;5094452;28;20256;-84
2021/10/26 13:27:40;;;;;;;2.07;1.60;;;;;;;;;;5094953;28;20185;-84
2021/10/26 13:30:25;;;;;;;2.73;2.00;;;;;;;;;;5094349;28;20189;-83
2021/10/26 13:33:11;;;;;;;2.30;1.57;;;;;;;;;;5094497;28;20185;-86
2021/10/26 13:35:57;;;;;;;3.13;1.60;;;;;;;;;;5094197;28;20205;-85
2021/10/26 13:38:42;;;;;;;1.97;1.60;;;;;;;;;;5094072;28;20209;-86
2021/10/26 13:41:29;;;;;;;4.03;1.93;;;;;;;;;;5094080;28;20208;-86
2021/10/26 13:44:15;;;;;;;3.13;1.90;;;;;;;;;;5094604;28;20790;-86
2021/10/26 13:47:00;;;;;;;1.93;1.60;;;;;;;;;;5094025;28;20212;-86
2021/10/26 13:49:45;;;;;;;1.60;1.50;;;;;;;;;;5093789;28;20225;-87
2021/10/26 13:52:30;;;;;;;3.27;1.77;;;;;;;;;;5094046;28;20189;-86
2021/10/26 13:55:15;;;;;;;4.50;1.93;;;;;;;;;;5094151;28;20555;-86
2021/10/26 13:58:01;;;;;;;3.30;1.50;;;;;;;;;;5093904;28;20197;-86
2021/10/26 14:00:49;;;;;;;3.30;2.03;;;;;;;;;;5093869;28;20200;-82
2021/10/26 14:03:34;;;;;;;3.73;1.50;;;;;;;;;;5094943;28;20284;-82
2021/10/26 14:06:21;;;;;;;2.67;1.80;;;;;;;;;;5095242;28;20177;-81
2021/10/26 14:09:07;;;;;;;3.20;1.57;;;;;;;;;;5094509;28;20642;-83
2021/10/26 14:11:54;;;;;;;1.90;1.40;;;;;;;;;;5094617;28;20189;-83
2021/10/26 14:14:40;;;;;;;2.43;1.50;;;;;;;;;;5094821;28;20220;-84
2021/10/26 14:17:26;;;;;;;11.00;4.50;;;;;;;;;;5094321;28;20699;-84
2021/10/26 14:20:12;;;;;;;4.80;1.90;;;;;;;;;;5094414;28;20212;-84
2021/10/26 14:22:57;;;;;;;5.53;1.90;;;;;;;;;;5094106;28;20193;-84
2021/10/26 14:25:42;;;;;;;3.33;1.80;;;;;;;;;;5094274;28;20186;-83
2021/10/26 14:28:27;;;;;;;5.00;2.97;;;;;;;;;;5094358;28;20307;-81
2021/10/26 14:31:17;;;;;;;2.60;2.13;;;;;;;;;;5094429;28;20185;-82
2021/10/26 14:34:02;;;;;;;5.27;2.30;;;;;;;;;;5094293;28;20193;-82
2021/10/26 14:36:54;;;;;;;3.83;1.30;;;;;;;;;;5093950;28;20317;-83
2021/10/26 14:39:57;;;;;;;4.67;2.10;;;;;;;;;;5093966;28;20204;-85
2021/10/26 14:55:02;;;;;;;1.70;1.60;;;;;;;;;;5093280;28;20293;-83
2021/10/26 14:57:49;;;;;;;2.93;1.70;;;;;;;;;;5093412;28;20208;-84
2021/10/26 15:00:34;;;;;;;3.50;1.70;;;;;;;;;;5093579;28;20225;-85
2021/10/26 15:03:19;;;;;;;1.60;1.50;;;;;;;;;;5093505;28;20192;-84
2021/10/26 15:06:06;;;;;;;1.80;1.43;;;;;;;;;;5093357;28;20189;-85
2021/10/26 15:08:55;;;;;;;4.40;1.53;;;;;;;;;;5093285;28;20319;-84
2021/10/26 15:11:41;;;;;;;1.20;1.20;;;;;;;;;;5092367;28;20189;-83
2021/10/26 15:14:29;;;;;;;1.40;1.30;;;;;;;;;;5093582;28;20664;-84
2021/10/26 15:17:15;;;;;;;1.40;1.30;;;;;;;;;;5093347;28;20193;-83
2021/10/26 15:20:04;;;;;;;1.50;1.40;;;;;;;;;;5093128;28;20208;-84
2021/10/26 15:22:57;;;;;;;1.90;1.40;;;;;;;;;;5093251;28;20331;-85
2021/10/26 15:34:51;;;;;;;1.20;1.10;;;;;;;;;;5094173;28;20181;-88
2021/10/26 15:37:36;;;;;;;1.17;1.00;;;;;;;;;;5094607;28;20189;-86
2021/10/26 15:40:22;;;;;;;2.30;1.30;;;;;;;;;;5092649;28;20247;-85
2021/10/26 15:43:08;;;;;;;1.20;1.20;;;;;;;;;;5093383;28;20193;-83
2021/10/26 15:45:53;;;;;;;1.93;1.20;;;;;;;;;;5092310;28;20188;-83
2021/10/26 15:48:38;;;;;;;1.17;1.17;;;;;;;;;;5092545;28;20574;-84
2021/10/26 15:51:27;;;;;;;1.93;1.50;;;;;;;;;;5092262;28;20708;-83
2021/10/26 15:54:15;;;;;;;1.83;1.10;;;;;;;;;;5092585;28;20606;-84
2021/10/26 15:57:01;;;;;;;1.20;1.20;;;;;;;;;;5093383;28;20656;-88
2021/10/26 16:00:20;;;;;;;1.33;1.33;;;;;;;;;;5152018;27;20284;-87
2021/10/26 16:03:06;;;;;;;2.37;1.53;;;;;;;;;;5152844;27;20191;-91
2021/10/26 16:05:51;;;;;;;2.63;1.60;;;;;;;;;;5153550;27;20186;-90
2021/10/26 16:08:36;;;;;;;2.23;1.63;;;;;;;;;;5151068;27;20265;-84
2021/10/26 16:11:30;;;;;;;2.43;1.90;;;;;;;;;;5150391;27;20585;-84
2021/10/26 16:14:17;;;;;;;2.00;1.70;;;;;;;;;;5140139;27;20272;-85
2021/10/26 16:17:05;;;;;;;1.73;1.57;;;;;;;;;;5150549;27;20190;-92
2021/10/26 16:19:50;;;;;;;2.53;1.80;;;;;;;;;;5150968;27;20236;-84
2021/10/26 16:22:35;;;;;;;2.77;2.10;;;;;;;;;;5149826;27;20191;-84
2021/10/26 16:25:21;;;;;;;2.10;1.90;;;;;;;;;;5149832;27;20184;-85
2021/10/26 16:28:06;;;;;;;3.07;1.90;;;;;;;;;;5149784;27;20686;-84
2021/10/26 16:30:52;;;;;;;2.10;1.90;;;;;;;;;;5149665;27;20268;-84
2021/10/26 16:33:39;;;;;;;3.83;1.83;;;;;;;;;;5149509;27;20214;-84
2021/10/26 16:36:28;;;;;;;2.63;1.50;;;;;;;;;;5149209;27;20211;-85
2021/10/26 16:39:13;;;;;;;1.83;1.60;;;;;;;;;;5149455;27;20222;-85
2021/10/26 16:41:59;;;;;;;6.60;3.00;;;;;;;;;;5149852;27;20195;-84
2021/10/26 16:44:52;;;;;;;3.63;2.70;;;;;;;;;;5149300;27;20616;-85
2021/10/26 16:47:38;;;;;;;2.60;2.37;;;;;;;;;;5149449;27;20667;-85
2021/10/26 16:50:25;;;;;;;3.27;2.53;;;;;;;;;;5140957;27;20215;-84
2021/10/26 16:53:10;;;;;;;5.07;3.63;;;;;;;;;;5129245;28;20183;-84
2021/10/26 16:55:57;;;;;;;3.23;3.03;;;;;;;;;;5129039;28;20180;-84
2021/10/26 16:58:42;;;;;;;3.57;3.20;;;;;;;;;;5128180;28;20235;-85
2021/10/26 17:01:29;;;;;;;4.33;3.80;;;;;;;;;;5128782;28;20183;-83
2021/10/26 17:04:16;;;;;;;5.93;3.53;;;;;;;;;;5128089;28;20199;-85
2021/10/26 17:07:03;;;;;;;7.07;3.80;;;;;;;;;;5128301;28;20196;-84